sensor_id;sensor_type;location;lat;lon;timestamp;temperature;humidity
78694;SHT31;68029;51.978;5.646;2023-05-08T00:01:35;17.8;71.8
78694;SHT31;68029;51.978;5.646;2023-05-08T00:04:07;17.7;71.6
78694;SHT31;68029;51.978;5.646;2023-05-08T00:06:37;17.7;71.6
78694;SHT31;68029;51.978;5.646;2023-05-08T00:09:07;17.7;71.5
78694;SHT31;68029;51.978;5.646;2023-05-08T00:11:37;17.7;71.4
78694;SHT31;68029;51.978;5.646;2023-05-08T00:14:08;17.7;71.6
78694;SHT31;68029;51.978;5.646;2023-05-08T00:16:38;17.7;71.5
78694;SHT31;68029;51.978;5.646;2023-05-08T00:19:09;17.7;71.4
78694;SHT31;68029;51.978;5.646;2023-05-08T00:21:39;17.7;71.4
78694;SHT31;68029;51.978;5.646;2023-05-08T00:24:08;17.7;71.4
78694;SHT31;68029;51.978;5.646;2023-05-08T00:26:38;17.7;71.3
78694;SHT31;68029;51.978;5.646;2023-05-08T00:29:08;17.6;71.2
78694;SHT31;68029;51.978;5.646;2023-05-08T00:31:38;17.6;71.3
78694;SHT31;68029;51.978;5.646;2023-05-08T00:34:07;17.6;71.5
78694;SHT31;68029;51.978;5.646;2023-05-08T00:36:37;17.6;71.6
78694;SHT31;68029;51.978;5.646;2023-05-08T00:39:06;17.6;71.6
78694;SHT31;68029;51.978;5.646;2023-05-08T00:41:36;17.6;71.7
78694;SHT31;68029;51.978;5.646;2023-05-08T00:44:07;17.5;71.9
78694;SHT31;68029;51.978;5.646;2023-05-08T00:46:37;17.5;71.6
78694;SHT31;68029;51.978;5.646;2023-05-08T00:49:08;17.5;71.5
78694;SHT31;68029;51.978;5.646;2023-05-08T00:51:43;17.5;71.3
78694;SHT31;68029;51.978;5.646;2023-05-08T00:54:13;17.5;71.1
78694;SHT31;68029;51.978;5.646;2023-05-08T00:56:45;17.5;71.1
78694;SHT31;68029;51.978;5.646;2023-05-08T00:59:19;17.4;71.1
78694;SHT31;68029;51.978;5.646;2023-05-08T01:01:49;17.4;71.2
78694;SHT31;68029;51.978;5.646;2023-05-08T01:04:23;17.4;71.1
78694;SHT31;68029;51.978;5.646;2023-05-08T01:06:54;17.4;70.8
78694;SHT31;68029;51.978;5.646;2023-05-08T01:09:23;17.3;70.8
78694;SHT31;68029;51.978;5.646;2023-05-08T01:12:02;17.3;70.5
78694;SHT31;68029;51.978;5.646;2023-05-08T01:14:39;17.3;70.4
78694;SHT31;68029;51.978;5.646;2023-05-08T01:17:23;17.3;70.3
78694;SHT31;68029;51.978;5.646;2023-05-08T01:20:14;17.2;70.2
78694;SHT31;68029;51.978;5.646;2023-05-08T01:30:35;17.1;70.5
78694;SHT31;68029;51.978;5.646;2023-05-08T01:33:12;17.1;70.6
78694;SHT31;68029;51.978;5.646;2023-05-08T01:35:49;17.0;70.8
78694;SHT31;68029;51.978;5.646;2023-05-08T01:38:31;17.0;70.9
78694;SHT31;68029;51.978;5.646;2023-05-08T01:41:11;17.0;70.7
78694;SHT31;68029;51.978;5.646;2023-05-08T01:43:49;16.9;70.6
78694;SHT31;68029;51.978;5.646;2023-05-08T01:46:25;16.9;70.3
78694;SHT31;68029;51.978;5.646;2023-05-08T01:49:01;16.9;70.4
78694;SHT31;68029;51.978;5.646;2023-05-08T01:51:38;16.8;70.0
78694;SHT31;68029;51.978;5.646;2023-05-08T01:54:15;16.8;70.0
78694;SHT31;68029;51.978;5.646;2023-05-08T01:56:52;16.8;69.8
78694;SHT31;68029;51.978;5.646;2023-05-08T01:59:27;16.7;70.1
78694;SHT31;68029;51.978;5.646;2023-05-08T02:02:00;16.7;69.9
78694;SHT31;68029;51.978;5.646;2023-05-08T02:04:33;16.7;70.0
78694;SHT31;68029;51.978;5.646;2023-05-08T02:07:04;16.6;70.2
78694;SHT31;68029;51.978;5.646;2023-05-08T02:09:36;16.6;70.0
78694;SHT31;68029;51.978;5.646;2023-05-08T02:12:08;16.6;70.6
78694;SHT31;68029;51.978;5.646;2023-05-08T02:14:39;16.5;70.6
78694;SHT31;68029;51.978;5.646;2023-05-08T02:17:15;16.5;71.1
78694;SHT31;68029;51.978;5.646;2023-05-08T02:19:47;16.5;71.2
78694;SHT31;68029;51.978;5.646;2023-05-08T02:22:22;16.5;71.7
78694;SHT31;68029;51.978;5.646;2023-05-08T02:24:54;16.4;71.7
78694;SHT31;68029;51.978;5.646;2023-05-08T02:27:27;16.4;71.4
78694;SHT31;68029;51.978;5.646;2023-05-08T02:29:59;16.4;71.6
78694;SHT31;68029;51.978;5.646;2023-05-08T02:32:30;16.4;71.7
78694;SHT31;68029;51.978;5.646;2023-05-08T02:35:03;16.3;71.5
78694;SHT31;68029;51.978;5.646;2023-05-08T02:37:36;16.3;71.3
78694;SHT31;68029;51.978;5.646;2023-05-08T02:40:09;16.3;71.3
78694;SHT31;68029;51.978;5.646;2023-05-08T02:42:42;16.3;71.9
78694;SHT31;68029;51.978;5.646;2023-05-08T02:45:14;16.2;72.3
78694;SHT31;68029;51.978;5.646;2023-05-08T02:47:48;16.2;72.1
78694;SHT31;68029;51.978;5.646;2023-05-08T02:50:28;16.2;72.6
78694;SHT31;68029;51.978;5.646;2023-05-08T02:53:02;16.2;72.5
78694;SHT31;68029;51.978;5.646;2023-05-08T02:55:41;16.2;72.7
78694;SHT31;68029;51.978;5.646;2023-05-08T02:58:17;16.2;72.9
78694;SHT31;68029;51.978;5.646;2023-05-08T03:00:53;16.2;72.6
78694;SHT31;68029;51.978;5.646;2023-05-08T03:03:29;16.2;72.9
78694;SHT31;68029;51.978;5.646;2023-05-08T03:06:08;16.2;72.9
78694;SHT31;68029;51.978;5.646;2023-05-08T03:08:44;16.2;72.9
78694;SHT31;68029;51.978;5.646;2023-05-08T03:11:20;16.1;72.4
78694;SHT31;68029;51.978;5.646;2023-05-08T03:13:57;16.1;72.7
78694;SHT31;68029;51.978;5.646;2023-05-08T03:16:31;16.1;72.4
78694;SHT31;68029;51.978;5.646;2023-05-08T03:19:06;16.1;72.6
78694;SHT31;68029;51.978;5.646;2023-05-08T03:21:38;16.1;73.0
78694;SHT31;68029;51.978;5.646;2023-05-08T03:24:10;16.0;72.7
78694;SHT31;68029;51.978;5.646;2023-05-08T03:26:44;16.0;73.3
78694;SHT31;68029;51.978;5.646;2023-05-08T03:29:15;16.0;73.0
78694;SHT31;68029;51.978;5.646;2023-05-08T03:31:48;16.0;73.2
78694;SHT31;68029;51.978;5.646;2023-05-08T03:34:22;16.0;73.0
78694;SHT31;68029;51.978;5.646;2023-05-08T03:36:53;16.0;73.2
78694;SHT31;68029;51.978;5.646;2023-05-08T03:39:24;16.0;73.2
78694;SHT31;68029;51.978;5.646;2023-05-08T03:41:56;16.0;73.2
78694;SHT31;68029;51.978;5.646;2023-05-08T03:44:27;16.1;72.7
78694;SHT31;68029;51.978;5.646;2023-05-08T03:46:59;16.1;73.0
78694;SHT31;68029;51.978;5.646;2023-05-08T03:49:30;16.0;73.1
78694;SHT31;68029;51.978;5.646;2023-05-08T03:52:02;16.0;73.5
78694;SHT31;68029;51.978;5.646;2023-05-08T03:54:32;16.1;73.6
78694;SHT31;68029;51.978;5.646;2023-05-08T03:57:02;16.1;73.4
78694;SHT31;68029;51.978;5.646;2023-05-08T03:59:41;16.1;73.6
78694;SHT31;68029;51.978;5.646;2023-05-08T04:02:18;16.1;73.5
78694;SHT31;68029;51.978;5.646;2023-05-08T04:04:58;16.1;73.9
78694;SHT31;68029;51.978;5.646;2023-05-08T04:07:36;16.1;73.9
78694;SHT31;68029;51.978;5.646;2023-05-08T04:10:12;16.1;74.1
78694;SHT31;68029;51.978;5.646;2023-05-08T04:12:54;16.1;74.2
78694;SHT31;68029;51.978;5.646;2023-05-08T04:15:27;16.1;73.9
78694;SHT31;68029;51.978;5.646;2023-05-08T04:18:01;16.2;74.0
78694;SHT31;68029;51.978;5.646;2023-05-08T04:20:33;16.2;74.2
78694;SHT31;68029;51.978;5.646;2023-05-08T04:23:05;16.2;74.2
78694;SHT31;68029;51.978;5.646;2023-05-08T04:25:39;16.2;74.0
78694;SHT31;68029;51.978;5.646;2023-05-08T04:28:10;16.2;73.7
78694;SHT31;68029;51.978;5.646;2023-05-08T04:30:40;16.2;74.0
78694;SHT31;68029;51.978;5.646;2023-05-08T04:33:11;16.3;73.9
78694;SHT31;68029;51.978;5.646;2023-05-08T04:35:44;16.3;73.8
78694;SHT31;68029;51.978;5.646;2023-05-08T04:38:14;16.3;73.6
78694;SHT31;68029;51.978;5.646;2023-05-08T04:40:44;16.3;73.4
78694;SHT31;68029;51.978;5.646;2023-05-08T04:43:14;16.3;73.4
78694;SHT31;68029;51.978;5.646;2023-05-08T04:45:43;16.3;73.6
78694;SHT31;68029;51.978;5.646;2023-05-08T04:48:13;16.3;73.6
78694;SHT31;68029;51.978;5.646;2023-05-08T04:50:43;16.3;73.8
78694;SHT31;68029;51.978;5.646;2023-05-08T04:53:13;16.4;73.7
78694;SHT31;68029;51.978;5.646;2023-05-08T04:55:42;16.4;73.4
78694;SHT31;68029;51.978;5.646;2023-05-08T04:58:12;16.4;73.9
78694;SHT31;68029;51.978;5.646;2023-05-08T05:00:42;16.4;73.7
78694;SHT31;68029;51.978;5.646;2023-05-08T05:03:11;16.4;73.8
78694;SHT31;68029;51.978;5.646;2023-05-08T05:05:41;16.5;73.8
78694;SHT31;68029;51.978;5.646;2023-05-08T05:08:10;16.5;74.2
78694;SHT31;68029;51.978;5.646;2023-05-08T05:10:40;16.5;72.6
78694;SHT31;68029;51.978;5.646;2023-05-08T05:13:09;16.6;73.1
78694;SHT31;68029;51.978;5.646;2023-05-08T05:15:41;16.6;73.6
78694;SHT31;68029;51.978;5.646;2023-05-08T05:18:11;16.7;73.3
78694;SHT31;68029;51.978;5.646;2023-05-08T05:20:40;16.8;73.0
78694;SHT31;68029;51.978;5.646;2023-05-08T05:23:11;16.8;72.2
78694;SHT31;68029;51.978;5.646;2023-05-08T05:25:40;16.9;71.7
78694;SHT31;68029;51.978;5.646;2023-05-08T05:28:10;17.0;71.8
78694;SHT31;68029;51.978;5.646;2023-05-08T05:30:39;17.1;70.8
78694;SHT31;68029;51.978;5.646;2023-05-08T05:33:09;17.1;70.3
78694;SHT31;68029;51.978;5.646;2023-05-08T05:35:39;17.2;70.8
78694;SHT31;68029;51.978;5.646;2023-05-08T05:38:08;17.2;71.2
78694;SHT31;68029;51.978;5.646;2023-05-08T05:40:38;17.3;70.8
78694;SHT31;68029;51.978;5.646;2023-05-08T05:43:07;17.4;72.4
78694;SHT31;68029;51.978;5.646;2023-05-08T05:45:37;17.5;71.1
78694;SHT31;68029;51.978;5.646;2023-05-08T05:48:06;17.6;70.2
78694;SHT31;68029;51.978;5.646;2023-05-08T05:50:36;17.8;69.0
78694;SHT31;68029;51.978;5.646;2023-05-08T05:53:06;17.9;68.3
78694;SHT31;68029;51.978;5.646;2023-05-08T05:55:36;18.0;67.5
78694;SHT31;68029;51.978;5.646;2023-05-08T05:58:08;18.0;67.4
78694;SHT31;68029;51.978;5.646;2023-05-08T06:00:37;18.1;67.0
78694;SHT31;68029;51.978;5.646;2023-05-08T06:03:07;18.1;66.6
78694;SHT31;68029;51.978;5.646;2023-05-08T06:05:37;18.1;66.0
78694;SHT31;68029;51.978;5.646;2023-05-08T06:08:07;18.1;66.7
78694;SHT31;68029;51.978;5.646;2023-05-08T06:10:37;18.1;66.0
78694;SHT31;68029;51.978;5.646;2023-05-08T06:13:07;18.1;66.7
78694;SHT31;68029;51.978;5.646;2023-05-08T06:15:37;18.1;66.6
78694;SHT31;68029;51.978;5.646;2023-05-08T06:18:07;18.1;66.9
78694;SHT31;68029;51.978;5.646;2023-05-08T06:20:38;18.1;67.5
78694;SHT31;68029;51.978;5.646;2023-05-08T06:23:08;18.1;67.7
78694;SHT31;68029;51.978;5.646;2023-05-08T06:25:37;18.1;68.1
78694;SHT31;68029;51.978;5.646;2023-05-08T06:28:09;18.1;68.2
78694;SHT31;68029;51.978;5.646;2023-05-08T06:30:38;18.2;67.7
78694;SHT31;68029;51.978;5.646;2023-05-08T06:33:08;18.3;68.2
78694;SHT31;68029;51.978;5.646;2023-05-08T06:35:39;18.4;67.7
78694;SHT31;68029;51.978;5.646;2023-05-08T06:38:09;18.6;67.2
78694;SHT31;68029;51.978;5.646;2023-05-08T06:40:42;18.7;66.9
78694;SHT31;68029;51.978;5.646;2023-05-08T06:43:12;18.8;67.5
78694;SHT31;68029;51.978;5.646;2023-05-08T06:45:43;19.0;66.8
78694;SHT31;68029;51.978;5.646;2023-05-08T06:48:12;19.1;65.7
78694;SHT31;68029;51.978;5.646;2023-05-08T06:50:42;19.3;66.5
78694;SHT31;68029;51.978;5.646;2023-05-08T06:53:13;19.4;65.3
78694;SHT31;68029;51.978;5.646;2023-05-08T06:55:43;19.6;65.4
78694;SHT31;68029;51.978;5.646;2023-05-08T06:58:13;19.7;65.4
78694;SHT31;68029;51.978;5.646;2023-05-08T07:00:43;19.9;63.9
78694;SHT31;68029;51.978;5.646;2023-05-08T07:03:14;20.0;64.2
78694;SHT31;68029;51.978;5.646;2023-05-08T07:05:44;20.1;62.9
78694;SHT31;68029;51.978;5.646;2023-05-08T07:08:13;20.2;63.2
78694;SHT31;68029;51.978;5.646;2023-05-08T07:10:43;20.3;63.9
78694;SHT31;68029;51.978;5.646;2023-05-08T07:13:12;20.3;62.9
78694;SHT31;68029;51.978;5.646;2023-05-08T07:15:46;20.4;63.1
78694;SHT31;68029;51.978;5.646;2023-05-08T07:18:16;20.4;62.7
78694;SHT31;68029;51.978;5.646;2023-05-08T07:20:45;20.4;63.2
78694;SHT31;68029;51.978;5.646;2023-05-08T07:23:15;20.4;62.7
78694;SHT31;68029;51.978;5.646;2023-05-08T07:25:45;20.4;62.9
78694;SHT31;68029;51.978;5.646;2023-05-08T07:28:15;20.4;63.0
78694;SHT31;68029;51.978;5.646;2023-05-08T07:30:45;20.4;64.1
78694;SHT31;68029;51.978;5.646;2023-05-08T07:33:15;20.4;64.2
78694;SHT31;68029;51.978;5.646;2023-05-08T07:35:45;20.4;64.2
78694;SHT31;68029;51.978;5.646;2023-05-08T07:38:15;20.4;64.9
78694;SHT31;68029;51.978;5.646;2023-05-08T07:40:46;20.4;65.4
78694;SHT31;68029;51.978;5.646;2023-05-08T07:43:17;20.4;64.3
78694;SHT31;68029;51.978;5.646;2023-05-08T07:45:47;20.4;63.6
78694;SHT31;68029;51.978;5.646;2023-05-08T07:48:16;20.4;64.4
78694;SHT31;68029;51.978;5.646;2023-05-08T07:50:48;20.4;64.8
78694;SHT31;68029;51.978;5.646;2023-05-08T07:53:18;20.4;64.2
78694;SHT31;68029;51.978;5.646;2023-05-08T07:55:47;20.4;63.7
78694;SHT31;68029;51.978;5.646;2023-05-08T07:58:17;20.4;64.7
78694;SHT31;68029;51.978;5.646;2023-05-08T08:00:48;20.4;63.7
78694;SHT31;68029;51.978;5.646;2023-05-08T08:03:18;20.4;64.8
78694;SHT31;68029;51.978;5.646;2023-05-08T08:05:47;20.4;63.8
78694;SHT31;68029;51.978;5.646;2023-05-08T08:08:17;20.4;63.4
78694;SHT31;68029;51.978;5.646;2023-05-08T08:10:47;20.4;64.1
78694;SHT31;68029;51.978;5.646;2023-05-08T08:13:16;20.4;63.8
78694;SHT31;68029;51.978;5.646;2023-05-08T08:15:46;20.4;64.5
78694;SHT31;68029;51.978;5.646;2023-05-08T08:18:17;20.4;64.9
78694;SHT31;68029;51.978;5.646;2023-05-08T08:20:47;20.4;64.8
78694;SHT31;68029;51.978;5.646;2023-05-08T08:23:16;20.4;65.7
78694;SHT31;68029;51.978;5.646;2023-05-08T08:25:46;20.4;65.6
78694;SHT31;68029;51.978;5.646;2023-05-08T08:28:15;20.4;65.0
78694;SHT31;68029;51.978;5.646;2023-05-08T08:30:45;20.5;66.3
78694;SHT31;68029;51.978;5.646;2023-05-08T08:33:15;20.7;66.8
78694;SHT31;68029;51.978;5.646;2023-05-08T08:35:45;21.0;65.3
78694;SHT31;68029;51.978;5.646;2023-05-08T08:38:15;21.3;63.3
78694;SHT31;68029;51.978;5.646;2023-05-08T08:40:45;21.5;64.1
78694;SHT31;68029;51.978;5.646;2023-05-08T08:43:15;21.7;62.8
78694;SHT31;68029;51.978;5.646;2023-05-08T08:45:44;22.0;61.8
78694;SHT31;68029;51.978;5.646;2023-05-08T08:48:15;22.1;60.3
78694;SHT31;68029;51.978;5.646;2023-05-08T08:50:46;22.3;60.9
78694;SHT31;68029;51.978;5.646;2023-05-08T08:53:25;22.4;60.3
78694;SHT31;68029;51.978;5.646;2023-05-08T08:55:57;22.5;60.9
78694;SHT31;68029;51.978;5.646;2023-05-08T08:58:32;22.5;59.8
78694;SHT31;68029;51.978;5.646;2023-05-08T09:01:06;22.6;59.0
78694;SHT31;68029;51.978;5.646;2023-05-08T09:03:36;22.6;59.6
78694;SHT31;68029;51.978;5.646;2023-05-08T09:06:06;22.6;59.4
78694;SHT31;68029;51.978;5.646;2023-05-08T09:08:37;22.6;60.0
78694;SHT31;68029;51.978;5.646;2023-05-08T09:11:09;22.6;59.6
78694;SHT31;68029;51.978;5.646;2023-05-08T09:13:38;22.6;59.4
78694;SHT31;68029;51.978;5.646;2023-05-08T09:16:08;22.5;59.3
78694;SHT31;68029;51.978;5.646;2023-05-08T09:18:38;22.5;60.0
78694;SHT31;68029;51.978;5.646;2023-05-08T09:21:07;22.5;60.3
78694;SHT31;68029;51.978;5.646;2023-05-08T09:23:57;22.5;59.8
78694;SHT31;68029;51.978;5.646;2023-05-08T09:26:30;22.5;59.4
78694;SHT31;68029;51.978;5.646;2023-05-08T09:29:10;22.5;60.4
78694;SHT31;68029;51.978;5.646;2023-05-08T09:31:41;22.5;60.0
78694;SHT31;68029;51.978;5.646;2023-05-08T09:34:25;22.6;59.5
78694;SHT31;68029;51.978;5.646;2023-05-08T09:36:55;22.6;59.6
78694;SHT31;68029;51.978;5.646;2023-05-08T09:39:25;22.5;60.1
78694;SHT31;68029;51.978;5.646;2023-05-08T09:42:00;22.5;60.6
78694;SHT31;68029;51.978;5.646;2023-05-08T09:44:44;22.5;59.8
78694;SHT31;68029;51.978;5.646;2023-05-08T09:47:16;22.5;59.4
78694;SHT31;68029;51.978;5.646;2023-05-08T09:50:00;22.5;59.9
78694;SHT31;68029;51.978;5.646;2023-05-08T09:52:31;22.5;59.7
78694;SHT31;68029;51.978;5.646;2023-05-08T09:55:03;22.5;60.3
78694;SHT31;68029;51.978;5.646;2023-05-08T09:57:36;22.5;59.7
78694;SHT31;68029;51.978;5.646;2023-05-08T10:00:08;22.5;59.2
78694;SHT31;68029;51.978;5.646;2023-05-08T10:02:41;22.5;59.8
78694;SHT31;68029;51.978;5.646;2023-05-08T10:05:24;22.5;59.1
78694;SHT31;68029;51.978;5.646;2023-05-08T10:07:56;22.5;58.0
78694;SHT31;68029;51.978;5.646;2023-05-08T10:10:28;22.5;58.7
78694;SHT31;68029;51.978;5.646;2023-05-08T10:13:00;22.5;58.8
78694;SHT31;68029;51.978;5.646;2023-05-08T10:15:33;22.6;59.5
78694;SHT31;68029;51.978;5.646;2023-05-08T10:18:05;22.6;58.7
78694;SHT31;68029;51.978;5.646;2023-05-08T10:20:39;22.6;57.7
78694;SHT31;68029;51.978;5.646;2023-05-08T10:23:15;22.5;58.5
78694;SHT31;68029;51.978;5.646;2023-05-08T10:25:47;22.5;58.7
78694;SHT31;68029;51.978;5.646;2023-05-08T10:28:27;22.5;58.2
78694;SHT31;68029;51.978;5.646;2023-05-08T10:30:59;22.4;58.4
78694;SHT31;68029;51.978;5.646;2023-05-08T10:33:30;22.4;59.5
78694;SHT31;68029;51.978;5.646;2023-05-08T10:36:06;22.4;60.5
78694;SHT31;68029;51.978;5.646;2023-05-08T10:38:36;22.5;58.6
78694;SHT31;68029;51.978;5.646;2023-05-08T10:41:06;22.5;58.8
78694;SHT31;68029;51.978;5.646;2023-05-08T10:43:41;22.6;58.0
78694;SHT31;68029;51.978;5.646;2023-05-08T10:46:20;22.6;57.9
78694;SHT31;68029;51.978;5.646;2023-05-08T10:48:58;22.7;59.2
78694;SHT31;68029;51.978;5.646;2023-05-08T10:51:39;22.9;60.4
78694;SHT31;68029;51.978;5.646;2023-05-08T10:54:14;23.1;59.4
78694;SHT31;68029;51.978;5.646;2023-05-08T10:56:49;23.3;58.7
78694;SHT31;68029;51.978;5.646;2023-05-08T10:59:19;23.6;56.9
78694;SHT31;68029;51.978;5.646;2023-05-08T11:01:50;23.9;57.4
78694;SHT31;68029;51.978;5.646;2023-05-08T11:04:22;24.1;56.5
78694;SHT31;68029;51.978;5.646;2023-05-08T11:06:52;24.3;56.9
78694;SHT31;68029;51.978;5.646;2023-05-08T11:09:30;24.4;55.7
78694;SHT31;68029;51.978;5.646;2023-05-08T11:12:07;24.4;55.2
78694;SHT31;68029;51.978;5.646;2023-05-08T11:14:41;24.4;55.1
78694;SHT31;68029;51.978;5.646;2023-05-08T11:17:13;24.4;54.4
78694;SHT31;68029;51.978;5.646;2023-05-08T11:19:57;24.4;55.5
78694;SHT31;68029;51.978;5.646;2023-05-08T11:22:29;24.4;56.3
78694;SHT31;68029;51.978;5.646;2023-05-08T11:25:01;24.4;55.7
78694;SHT31;68029;51.978;5.646;2023-05-08T11:28:15;24.4;55.2
78694;SHT31;68029;51.978;5.646;2023-05-08T11:30:45;24.5;55.9
78694;SHT31;68029;51.978;5.646;2023-05-08T11:33:16;24.6;55.7
78694;SHT31;68029;51.978;5.646;2023-05-08T11:35:51;24.6;54.7
78694;SHT31;68029;51.978;5.646;2023-05-08T11:38:23;24.6;54.8
78694;SHT31;68029;51.978;5.646;2023-05-08T11:40:58;24.7;55.9
78694;SHT31;68029;51.978;5.646;2023-05-08T11:44:17;24.7;54.2
78694;SHT31;68029;51.978;5.646;2023-05-08T11:46:51;24.8;53.8
78694;SHT31;68029;51.978;5.646;2023-05-08T11:49:22;24.9;54.5
78694;SHT31;68029;51.978;5.646;2023-05-08T11:51:55;25.0;53.8
78694;SHT31;68029;51.978;5.646;2023-05-08T11:54:29;25.1;53.3
78694;SHT31;68029;51.978;5.646;2023-05-08T11:56:59;25.3;52.2
78694;SHT31;68029;51.978;5.646;2023-05-08T11:59:33;25.4;53.6
78694;SHT31;68029;51.978;5.646;2023-05-08T12:02:03;25.5;52.8
78694;SHT31;68029;51.978;5.646;2023-05-08T12:04:45;25.6;53.2
78694;SHT31;68029;51.978;5.646;2023-05-08T12:07:15;25.7;52.1
78694;SHT31;68029;51.978;5.646;2023-05-08T12:09:49;25.8;51.3
78694;SHT31;68029;51.978;5.646;2023-05-08T12:12:18;25.9;50.4
78694;SHT31;68029;51.978;5.646;2023-05-08T12:14:50;25.9;49.9
78694;SHT31;68029;51.978;5.646;2023-05-08T12:17:20;25.9;50.5
78694;SHT31;68029;51.978;5.646;2023-05-08T12:19:53;25.9;49.8
78694;SHT31;68029;51.978;5.646;2023-05-08T12:22:25;25.8;49.9
78694;SHT31;68029;51.978;5.646;2023-05-08T12:24:54;25.7;50.3
78694;SHT31;68029;51.978;5.646;2023-05-08T12:27:25;25.6;50.7
78694;SHT31;68029;51.978;5.646;2023-05-08T12:29:56;25.5;51.5
78694;SHT31;68029;51.978;5.646;2023-05-08T12:32:26;25.4;50.2
78694;SHT31;68029;51.978;5.646;2023-05-08T12:34:56;25.3;49.8
78694;SHT31;68029;51.978;5.646;2023-05-08T12:37:28;25.2;49.5
78694;SHT31;68029;51.978;5.646;2023-05-08T12:39:57;25.1;49.7
78694;SHT31;68029;51.978;5.646;2023-05-08T12:42:43;25.0;51.1
78694;SHT31;68029;51.978;5.646;2023-05-08T12:45:19;24.9;52.0
78694;SHT31;68029;51.978;5.646;2023-05-08T12:47:51;24.9;52.3
78694;SHT31;68029;51.978;5.646;2023-05-08T12:50:23;24.9;52.4
78694;SHT31;68029;51.978;5.646;2023-05-08T12:52:53;24.8;52.6
78694;SHT31;68029;51.978;5.646;2023-05-08T12:55:25;24.8;53.3
78694;SHT31;68029;51.978;5.646;2023-05-08T12:58:03;24.9;54.1
78694;SHT31;68029;51.978;5.646;2023-05-08T13:00:38;25.0;54.3
78694;SHT31;68029;51.978;5.646;2023-05-08T13:03:10;25.1;53.1
78694;SHT31;68029;51.978;5.646;2023-05-08T13:05:43;25.2;52.2
78694;SHT31;68029;51.978;5.646;2023-05-08T13:08:13;25.4;51.5
78694;SHT31;68029;51.978;5.646;2023-05-08T13:10:45;25.5;52.3
78694;SHT31;68029;51.978;5.646;2023-05-08T13:13:17;25.6;51.8
78694;SHT31;68029;51.978;5.646;2023-05-08T13:15:48;25.6;52.0
78694;SHT31;68029;51.978;5.646;2023-05-08T13:18:20;25.7;51.3
78694;SHT31;68029;51.978;5.646;2023-05-08T13:20:50;25.8;50.1
78694;SHT31;68029;51.978;5.646;2023-05-08T13:23:22;25.8;50.1
78694;SHT31;68029;51.978;5.646;2023-05-08T13:25:52;25.9;49.7
78694;SHT31;68029;51.978;5.646;2023-05-08T13:28:21;26.0;48.7
78694;SHT31;68029;51.978;5.646;2023-05-08T13:30:53;26.1;48.9
78694;SHT31;68029;51.978;5.646;2023-05-08T13:33:22;26.3;45.8
78694;SHT31;68029;51.978;5.646;2023-05-08T13:35:52;26.4;46.0
78694;SHT31;68029;51.978;5.646;2023-05-08T13:38:22;26.6;47.3
78694;SHT31;68029;51.978;5.646;2023-05-08T13:40:52;26.8;47.3
78694;SHT31;68029;51.978;5.646;2023-05-08T13:43:21;27.0;46.3
78694;SHT31;68029;51.978;5.646;2023-05-08T13:45:51;27.2;44.7
78694;SHT31;68029;51.978;5.646;2023-05-08T13:48:22;27.3;43.8
78694;SHT31;68029;51.978;5.646;2023-05-08T13:50:51;27.5;45.2
78694;SHT31;68029;51.978;5.646;2023-05-08T13:53:21;27.6;43.9
78694;SHT31;68029;51.978;5.646;2023-05-08T13:55:50;27.6;43.8
78694;SHT31;68029;51.978;5.646;2023-05-08T13:58:20;27.7;43.6
78694;SHT31;68029;51.978;5.646;2023-05-08T14:00:50;27.7;42.7
78694;SHT31;68029;51.978;5.646;2023-05-08T14:03:20;27.8;42.5
78694;SHT31;68029;51.978;5.646;2023-05-08T14:05:49;27.8;43.0
78694;SHT31;68029;51.978;5.646;2023-05-08T14:08:19;27.8;42.8
78694;SHT31;68029;51.978;5.646;2023-05-08T14:10:48;27.8;42.8
78694;SHT31;68029;51.978;5.646;2023-05-08T14:13:19;27.8;42.5
78694;SHT31;68029;51.978;5.646;2023-05-08T14:15:48;27.8;40.9
78694;SHT31;68029;51.978;5.646;2023-05-08T14:18:18;27.7;41.0
78694;SHT31;68029;51.978;5.646;2023-05-08T14:20:47;27.6;42.0
78694;SHT31;68029;51.978;5.646;2023-05-08T14:23:17;27.4;42.0
78694;SHT31;68029;51.978;5.646;2023-05-08T14:25:46;27.3;42.9
78694;SHT31;68029;51.978;5.646;2023-05-08T14:28:16;27.1;44.0
78694;SHT31;68029;51.978;5.646;2023-05-08T14:30:45;27.1;43.6
78694;SHT31;68029;51.978;5.646;2023-05-08T14:33:15;27.0;44.3
78694;SHT31;68029;51.978;5.646;2023-05-08T14:35:44;26.9;44.6
78694;SHT31;68029;51.978;5.646;2023-05-08T14:38:14;26.8;44.1
78694;SHT31;68029;51.978;5.646;2023-05-08T14:40:44;26.8;45.8
78694;SHT31;68029;51.978;5.646;2023-05-08T14:43:13;26.7;46.4
78694;SHT31;68029;51.978;5.646;2023-05-08T14:45:43;26.7;46.7
78694;SHT31;68029;51.978;5.646;2023-05-08T14:48:13;26.6;46.7
78694;SHT31;68029;51.978;5.646;2023-05-08T14:50:44;26.5;46.9
78694;SHT31;68029;51.978;5.646;2023-05-08T14:53:14;26.5;46.3
78694;SHT31;68029;51.978;5.646;2023-05-08T14:55:43;26.4;46.6
78694;SHT31;68029;51.978;5.646;2023-05-08T14:58:13;26.4;46.8
78694;SHT31;68029;51.978;5.646;2023-05-08T15:00:43;26.4;46.6
78694;SHT31;68029;51.978;5.646;2023-05-08T15:03:13;26.4;46.9
78694;SHT31;68029;51.978;5.646;2023-05-08T15:05:42;26.3;46.6
78694;SHT31;68029;51.978;5.646;2023-05-08T15:08:13;26.3;47.2
78694;SHT31;68029;51.978;5.646;2023-05-08T15:10:43;26.3;46.3
78694;SHT31;68029;51.978;5.646;2023-05-08T15:13:13;26.3;47.5
78694;SHT31;68029;51.978;5.646;2023-05-08T15:15:42;26.2;47.5
78694;SHT31;68029;51.978;5.646;2023-05-08T15:18:13;26.2;46.6
78694;SHT31;68029;51.978;5.646;2023-05-08T15:20:43;26.2;46.9
78694;SHT31;68029;51.978;5.646;2023-05-08T15:23:12;26.2;47.1
78694;SHT31;68029;51.978;5.646;2023-05-08T15:25:42;26.1;47.4
78694;SHT31;68029;51.978;5.646;2023-05-08T15:28:12;26.1;47.5
78694;SHT31;68029;51.978;5.646;2023-05-08T15:30:44;26.1;47.2
78694;SHT31;68029;51.978;5.646;2023-05-08T15:33:13;26.0;46.4
78694;SHT31;68029;51.978;5.646;2023-05-08T15:35:44;26.0;46.8
78694;SHT31;68029;51.978;5.646;2023-05-08T15:38:14;26.0;47.8
78694;SHT31;68029;51.978;5.646;2023-05-08T15:40:44;25.9;47.4
78694;SHT31;68029;51.978;5.646;2023-05-08T15:43:13;25.9;48.1
78694;SHT31;68029;51.978;5.646;2023-05-08T15:45:43;25.9;47.2
78694;SHT31;68029;51.978;5.646;2023-05-08T15:48:12;25.8;47.6
78694;SHT31;68029;51.978;5.646;2023-05-08T15:50:42;25.8;48.8
78694;SHT31;68029;51.978;5.646;2023-05-08T15:53:13;25.7;50.3
78694;SHT31;68029;51.978;5.646;2023-05-08T15:55:44;25.7;49.1
78694;SHT31;68029;51.978;5.646;2023-05-08T15:58:13;25.6;50.1
78694;SHT31;68029;51.978;5.646;2023-05-08T16:00:43;25.5;50.1
78694;SHT31;68029;51.978;5.646;2023-05-08T16:03:13;25.5;51.1
78694;SHT31;68029;51.978;5.646;2023-05-08T16:05:43;25.4;50.2
78694;SHT31;68029;51.978;5.646;2023-05-08T16:08:14;25.3;50.8
78694;SHT31;68029;51.978;5.646;2023-05-08T16:10:44;25.3;50.9
78694;SHT31;68029;51.978;5.646;2023-05-08T16:13:15;25.2;51.2
78694;SHT31;68029;51.978;5.646;2023-05-08T16:15:44;25.1;51.9
78694;SHT31;68029;51.978;5.646;2023-05-08T16:18:14;25.0;51.7
78694;SHT31;68029;51.978;5.646;2023-05-08T16:20:43;25.0;52.1
78694;SHT31;68029;51.978;5.646;2023-05-08T16:23:13;24.9;52.2
78694;SHT31;68029;51.978;5.646;2023-05-08T16:25:43;24.8;52.5
78694;SHT31;68029;51.978;5.646;2023-05-08T16:28:12;24.7;52.8
78694;SHT31;68029;51.978;5.646;2023-05-08T16:30:42;24.6;53.0
78694;SHT31;68029;51.978;5.646;2023-05-08T16:33:11;24.6;53.1
78694;SHT31;68029;51.978;5.646;2023-05-08T16:35:41;24.5;53.2
78694;SHT31;68029;51.978;5.646;2023-05-08T16:38:10;24.5;53.3
78694;SHT31;68029;51.978;5.646;2023-05-08T16:40:40;24.4;53.3